createdAt,value
2022-12-25T00:01:51.769Z,5.52
2022-12-25T00:04:19.773Z,5.54
2022-12-25T00:06:47.818Z,5.58
2022-12-25T00:09:15.990Z,5.51
2022-12-25T00:11:43.919Z,5.57
2022-12-25T00:14:12.048Z,5.51
2022-12-25T00:16:40.046Z,5.53
2022-12-25T00:19:09.463Z,5.50
2022-12-25T00:21:37.429Z,5.52
2022-12-25T00:24:05.773Z,5.44
2022-12-25T00:26:33.753Z,5.39
2022-12-25T00:29:01.757Z,5.40
2022-12-25T00:31:29.927Z,5.32
2022-12-25T00:33:57.871Z,5.24
2022-12-25T00:36:27.211Z,5.20
2022-12-25T00:38:55.127Z,5.02
2022-12-25T00:41:44.388Z,5.08
2022-12-25T00:44:14.031Z,5.04
2022-12-25T00:46:42.359Z,5.04
2022-12-25T00:49:10.733Z,5.03
2022-12-25T00:51:40.066Z,5.03
2022-12-25T00:54:08.021Z,4.96
2022-12-25T00:56:36.179Z,4.94
2022-12-25T00:59:04.235Z,4.96
2022-12-25T01:01:32.824Z,4.89
2022-12-25T01:04:01.056Z,4.89
2022-12-25T01:06:29.789Z,4.83
2022-12-25T01:09:17.133Z,4.79
2022-12-25T01:11:45.436Z,4.78
2022-12-25T01:14:13.632Z,4.76
2022-12-25T01:16:41.599Z,4.73
2022-12-25T01:19:10.054Z,4.70
2022-12-25T01:21:38.166Z,4.72
2022-12-25T01:24:08.365Z,4.70
2022-12-25T01:26:36.308Z,4.73
2022-12-25T01:29:04.422Z,4.75
2022-12-25T01:31:32.497Z,4.76
2022-12-25T01:34:00.529Z,4.82
2022-12-25T01:36:28.618Z,4.78
2022-12-25T01:38:56.580Z,4.75
2022-12-25T01:41:26.492Z,4.74
2022-12-25T01:44:00.690Z,4.67
2022-12-25T01:46:28.961Z,4.72
2022-12-25T01:48:58.838Z,4.66
2022-12-25T01:51:30.174Z,4.61
2022-12-25T01:53:59.603Z,4.60
2022-12-25T01:56:29.985Z,4.61
2022-12-25T01:58:58.488Z,4.59
2022-12-25T02:01:26.566Z,4.57
2022-12-25T02:03:55.463Z,4.53
2022-12-25T02:06:23.479Z,4.53
2022-12-25T02:08:51.443Z,4.49
2022-12-25T02:11:33.185Z,4.47
2022-12-25T02:14:02.842Z,4.42
2022-12-25T02:16:34.975Z,4.43
2022-12-25T02:19:33.398Z,4.43
2022-12-25T02:22:09.504Z,4.46
2022-12-25T02:24:44.783Z,4.45
2022-12-25T02:27:21.355Z,4.45
2022-12-25T02:29:55.036Z,4.40
2022-12-25T02:32:27.459Z,4.39
2022-12-25T02:35:00.559Z,4.36
2022-12-25T02:37:31.921Z,4.36
2022-12-25T02:40:03.023Z,4.36
2022-12-25T02:42:56.263Z,4.33
2022-12-25T02:45:53.360Z,4.32
2022-12-25T02:48:40.697Z,4.32
2022-12-25T02:51:28.897Z,4.34
2022-12-25T02:54:16.299Z,4.30
2022-12-25T02:57:03.498Z,4.28
2022-12-25T02:59:50.258Z,4.20
2022-12-25T03:02:37.323Z,4.18
2022-12-25T03:05:26.553Z,4.22
2022-12-25T03:07:54.918Z,4.23
2022-12-25T03:10:41.465Z,4.33
2022-12-25T03:13:13.734Z,4.29
2022-12-25T03:16:10.440Z,4.28
2022-12-25T03:18:39.891Z,4.39
2022-12-25T03:21:25.312Z,4.46
2022-12-25T03:24:17.358Z,4.56
2022-12-25T03:26:57.570Z,4.65
2022-12-25T03:29:44.052Z,4.67
2022-12-25T03:32:20.720Z,4.78
2022-12-25T03:35:13.769Z,4.82
2022-12-25T03:38:12.560Z,4.89
2022-12-25T03:41:08.477Z,4.96
2022-12-25T03:43:58.993Z,4.97
2022-12-25T03:46:47.055Z,5.08
2022-12-25T03:49:36.408Z,5.12
2022-12-25T03:52:24.837Z,5.13
2022-12-25T03:55:12.915Z,5.09
2022-12-25T03:57:57.981Z,4.88
2022-12-25T04:00:43.555Z,5.12
2022-12-25T04:03:28.937Z,5.15
2022-12-25T04:06:14.144Z,5.10
2022-12-25T04:09:01.256Z,5.14
2022-12-25T04:11:46.265Z,5.10
2022-12-25T04:14:31.802Z,5.16
2022-12-25T04:17:17.254Z,5.17
2022-12-25T04:20:02.606Z,5.05
2022-12-25T04:22:48.074Z,5.10
2022-12-25T04:25:34.964Z,5.09
2022-12-25T04:28:21.084Z,5.00
2022-12-25T04:31:06.335Z,5.04
2022-12-25T04:33:51.430Z,5.04
2022-12-25T04:36:19.358Z,5.05
2022-12-25T04:38:47.316Z,5.07
2022-12-25T04:41:16.641Z,5.13
2022-12-25T04:43:44.576Z,5.20
2022-12-25T04:46:12.486Z,5.25
2022-12-25T04:48:40.411Z,5.29
2022-12-25T04:51:15.893Z,5.26
2022-12-25T04:53:44.363Z,5.26
2022-12-25T04:56:12.540Z,5.37
2022-12-25T04:58:42.005Z,5.37
2022-12-25T05:01:10.226Z,5.38
2022-12-25T05:03:38.507Z,5.36
2022-12-25T05:06:07.590Z,5.39
2022-12-25T05:08:37.037Z,5.41
2022-12-25T05:11:09.273Z,5.35
2022-12-25T05:13:37.551Z,5.39
2022-12-25T05:16:12.381Z,5.41
2022-12-25T05:18:40.414Z,5.39
2022-12-25T05:21:08.581Z,5.39
2022-12-25T05:23:36.715Z,5.46
2022-12-25T05:26:08.225Z,5.49
2022-12-25T05:28:36.339Z,5.53
2022-12-25T05:31:04.541Z,5.61
2022-12-25T05:33:33.959Z,5.61
2022-12-25T05:36:04.073Z,5.53
2022-12-25T05:38:32.181Z,5.59
2022-12-25T05:41:00.120Z,5.58
2022-12-25T05:43:28.270Z,5.53
2022-12-25T05:45:56.417Z,5.51
2022-12-25T05:48:24.391Z,5.55
2022-12-25T05:50:53.704Z,5.55
2022-12-25T05:53:21.752Z,5.52
2022-12-25T05:55:49.655Z,5.45
2022-12-25T05:58:17.573Z,5.42
2022-12-25T06:00:45.679Z,5.43
2022-12-25T06:03:13.801Z,5.52
2022-12-25T06:05:41.780Z,5.55
2022-12-25T06:08:11.035Z,5.54
2022-12-25T06:10:39.061Z,5.54
2022-12-25T06:13:07.007Z,5.51
2022-12-25T06:15:34.927Z,5.50
2022-12-25T06:18:03.272Z,5.39
2022-12-25T06:20:31.335Z,5.61
2022-12-25T06:22:59.757Z,5.64
2022-12-25T06:25:29.126Z,5.56
2022-12-25T06:27:57.001Z,5.62
2022-12-25T06:30:25.017Z,5.50
2022-12-25T06:32:53.046Z,5.45
2022-12-25T06:35:20.955Z,5.46
2022-12-25T06:37:48.880Z,5.37
2022-12-25T06:40:17.973Z,5.37
2022-12-25T06:42:47.315Z,5.44
2022-12-25T06:45:15.367Z,5.37
2022-12-25T06:47:43.354Z,5.47
2022-12-25T06:50:11.634Z,5.50
2022-12-25T06:52:39.628Z,5.51
2022-12-25T06:55:08.280Z,5.54
2022-12-25T06:57:36.286Z,5.54
2022-12-25T07:00:06.786Z,5.58
2022-12-25T07:02:34.935Z,5.65
2022-12-25T07:05:04.733Z,5.65
2022-12-25T07:07:32.717Z,5.65
2022-12-25T07:10:00.743Z,5.80
2022-12-25T07:12:28.728Z,5.87
2022-12-25T07:14:57.766Z,5.94
2022-12-25T07:17:27.090Z,5.98
2022-12-25T07:19:56.617Z,5.96
2022-12-25T07:22:24.686Z,5.95
2022-12-25T07:24:52.572Z,5.95
2022-12-25T07:27:20.486Z,5.95
2022-12-25T07:29:48.412Z,5.86
2022-12-25T07:32:16.458Z,5.95
2022-12-25T07:34:45.864Z,5.80
2022-12-25T07:37:14.207Z,6.02
2022-12-25T07:39:42.106Z,6.07
2022-12-25T07:42:10.223Z,6.04
2022-12-25T07:44:38.165Z,6.06
2022-12-25T07:47:06.174Z,6.13
2022-12-25T07:49:34.103Z,6.07
2022-12-25T07:52:03.429Z,6.16
2022-12-25T07:54:31.347Z,6.22
2022-12-25T07:56:59.276Z,6.10
2022-12-25T07:59:27.573Z,6.12
2022-12-25T08:01:55.897Z,6.26
2022-12-25T08:04:24.453Z,6.17
2022-12-25T08:06:52.397Z,6.29
2022-12-25T08:09:21.691Z,6.28
2022-12-25T08:11:49.697Z,6.29
2022-12-25T08:14:17.631Z,6.33
2022-12-25T08:16:47.098Z,6.41
2022-12-25T08:19:15.643Z,6.45
2022-12-25T08:21:43.589Z,6.34
2022-12-25T08:24:11.769Z,6.49
2022-12-25T08:26:41.109Z,6.47
2022-12-25T08:29:09.020Z,6.50
2022-12-25T08:31:42.371Z,6.57
2022-12-25T08:34:13.703Z,6.57
2022-12-25T08:36:42.283Z,6.59
2022-12-25T08:39:10.233Z,6.61
2022-12-25T08:41:38.110Z,6.65
2022-12-25T08:44:07.753Z,6.66
2022-12-25T08:46:36.838Z,6.71
2022-12-25T08:49:04.827Z,6.72
2022-12-25T08:51:33.073Z,6.68
2022-12-25T08:54:01.636Z,6.77
2022-12-25T08:56:30.047Z,6.82
2022-12-25T08:58:58.011Z,6.88
2022-12-25T09:01:27.414Z,6.89
2022-12-25T09:03:55.443Z,6.94
2022-12-25T09:06:23.470Z,6.98
2022-12-25T09:08:51.643Z,6.98
2022-12-25T09:11:20.746Z,7.00
2022-12-25T09:13:49.128Z,6.97
2022-12-25T09:16:19.145Z,7.01
2022-12-25T09:18:48.657Z,6.99
2022-12-25T09:21:17.610Z,7.01
2022-12-25T09:23:45.800Z,7.03
2022-12-25T09:26:15.894Z,7.00
2022-12-25T09:28:50.877Z,7.00
2022-12-25T09:31:20.202Z,7.02
2022-12-25T09:33:49.634Z,7.11
2022-12-25T09:36:17.800Z,7.15
2022-12-25T09:38:45.775Z,7.20
2022-12-25T09:41:18.210Z,7.19
2022-12-25T09:43:48.982Z,7.24
2022-12-25T09:46:21.673Z,7.19
2022-12-25T09:48:58.730Z,7.22
2022-12-25T09:51:27.010Z,7.25
2022-12-25T09:54:01.946Z,7.27
2022-12-25T09:56:30.999Z,7.30
2022-12-25T09:58:59.008Z,7.34
2022-12-25T10:01:32.741Z,7.35
2022-12-25T10:04:17.228Z,7.38
2022-12-25T10:06:55.980Z,7.37
2022-12-25T10:09:36.093Z,7.35
2022-12-25T10:12:15.667Z,7.35
2022-12-25T10:14:54.873Z,7.40
2022-12-25T10:17:33.728Z,7.35
2022-12-25T10:20:10.918Z,7.32
2022-12-25T10:22:41.335Z,7.41
2022-12-25T10:25:17.753Z,7.43
2022-12-25T10:27:50.990Z,7.39
2022-12-25T10:30:20.920Z,7.46
2022-12-25T10:32:52.855Z,7.42
2022-12-25T10:35:25.050Z,7.43
2022-12-25T10:37:56.830Z,7.41
2022-12-25T10:40:49.640Z,7.47
2022-12-25T10:43:22.322Z,7.50
2022-12-25T10:45:50.759Z,7.50
2022-12-25T10:48:22.459Z,7.57
2022-12-25T10:50:51.871Z,7.55
2022-12-25T10:53:21.907Z,7.58
2022-12-25T10:56:00.307Z,7.56
2022-12-25T10:58:28.602Z,7.60
2022-12-25T11:01:00.602Z,7.62
2022-12-25T11:03:31.676Z,7.65
2022-12-25T11:06:02.798Z,7.65
2022-12-25T11:08:33.542Z,7.59
2022-12-25T11:11:06.282Z,7.67
2022-12-25T11:13:35.869Z,7.66
2022-12-25T11:16:07.247Z,7.68
2022-12-25T11:18:46.183Z,7.70
2022-12-25T11:21:20.091Z,7.67
2022-12-25T11:23:50.057Z,7.70
2022-12-25T11:26:19.356Z,7.74
2022-12-25T11:28:59.938Z,7.73
2022-12-25T11:31:36.848Z,7.72
2022-12-25T11:34:16.613Z,7.69
2022-12-25T11:36:53.756Z,7.69
2022-12-25T11:39:27.142Z,7.74
2022-12-25T11:41:58.020Z,7.78
2022-12-25T11:44:36.745Z,7.80
2022-12-25T11:47:12.864Z,7.72
2022-12-25T11:49:50.085Z,7.80
2022-12-25T11:52:20.691Z,7.78
2022-12-25T11:54:53.488Z,7.83
2022-12-25T11:57:22.497Z,7.79
2022-12-25T11:59:54.027Z,7.87
2022-12-25T12:02:27.445Z,7.84
2022-12-25T12:05:05.364Z,7.86
2022-12-25T12:07:37.351Z,7.87
2022-12-25T12:10:11.599Z,7.90
2022-12-25T12:12:48.996Z,7.92
2022-12-25T12:15:23.337Z,7.91
2022-12-25T12:17:51.265Z,7.94
2022-12-25T12:20:29.920Z,7.95
2022-12-25T12:22:59.974Z,7.99
2022-12-25T12:25:28.391Z,7.98
2022-12-25T12:28:04.453Z,8.00
2022-12-25T12:30:35.405Z,7.99
2022-12-25T12:33:04.700Z,7.87
2022-12-25T12:35:34.495Z,8.03
2022-12-25T12:38:05.724Z,8.06
2022-12-25T12:40:35.650Z,8.07
2022-12-25T12:43:03.744Z,8.04
2022-12-25T12:45:34.211Z,8.07
2022-12-25T12:48:02.332Z,8.09
2022-12-25T12:50:34.385Z,8.05
2022-12-25T12:53:28.374Z,8.12
2022-12-25T12:55:56.680Z,8.12
2022-12-25T12:58:34.182Z,8.11
2022-12-25T13:01:11.220Z,8.14
2022-12-25T13:03:51.693Z,8.16
2022-12-25T13:06:26.292Z,8.16
2022-12-25T13:09:07.278Z,8.13
2022-12-25T13:11:38.860Z,8.14
2022-12-25T13:14:27.209Z,8.03
2022-12-25T13:16:55.869Z,8.14
2022-12-25T13:19:27.585Z,8.02
2022-12-25T13:22:01.091Z,8.02
2022-12-25T13:24:31.633Z,8.07
2022-12-25T13:27:00.492Z,8.09
2022-12-25T13:29:32.364Z,8.14
2022-12-25T13:32:01.861Z,8.12
2022-12-25T13:34:31.936Z,8.07
2022-12-25T13:37:01.162Z,8.11
2022-12-25T13:39:32.673Z,8.12
2022-12-25T13:42:06.769Z,8.08
2022-12-25T13:44:43.379Z,8.09
2022-12-25T13:47:19.074Z,8.04
2022-12-25T13:49:47.635Z,8.03
2022-12-25T13:52:41.233Z,7.95
2022-12-25T13:55:15.324Z,7.99
2022-12-25T13:57:47.665Z,7.81
2022-12-25T14:00:20.799Z,7.99
2022-12-25T14:02:50.219Z,7.97
2022-12-25T14:05:39.516Z,7.94
2022-12-25T14:08:15.612Z,7.94
2022-12-25T14:10:48.348Z,7.91
2022-12-25T14:13:16.688Z,7.87
2022-12-25T14:15:48.022Z,7.78
2022-12-25T14:18:16.708Z,7.66
2022-12-25T14:20:58.041Z,7.73
2022-12-25T14:23:27.537Z,7.85
2022-12-25T14:25:56.892Z,7.84
2022-12-25T14:28:26.782Z,7.83
2022-12-25T14:30:57.810Z,7.87
2022-12-25T14:33:27.231Z,7.70
2022-12-25T14:35:55.314Z,7.67
2022-12-25T14:38:25.851Z,7.73
2022-12-25T14:41:07.653Z,7.85
2022-12-25T14:43:36.484Z,7.89
2022-12-25T14:46:06.972Z,7.65
2022-12-25T14:48:35.572Z,7.64
2022-12-25T14:51:05.566Z,7.80
2022-12-25T14:53:39.242Z,7.56
2022-12-25T14:56:10.268Z,7.60
2022-12-25T14:58:42.564Z,7.85
2022-12-25T15:01:21.192Z,7.83
2022-12-25T15:03:50.023Z,7.81
2022-12-25T15:06:20.310Z,7.70
2022-12-25T15:08:58.355Z,7.64
2022-12-25T15:11:28.000Z,7.84
2022-12-25T15:13:56.031Z,7.80
2022-12-25T15:16:26.070Z,7.66
2022-12-25T15:18:54.730Z,7.90
2022-12-25T15:21:25.736Z,7.59
2022-12-25T15:23:54.385Z,7.65
2022-12-25T15:26:22.568Z,7.74
2022-12-25T15:28:51.902Z,7.79
2022-12-25T15:31:23.140Z,7.74
2022-12-25T15:33:51.164Z,7.86
2022-12-25T15:36:19.251Z,7.89
2022-12-25T15:38:47.233Z,7.87
2022-12-25T15:41:37.722Z,7.59
2022-12-25T15:44:07.792Z,7.86
2022-12-25T15:46:35.992Z,7.91
2022-12-25T15:49:04.075Z,7.74
2022-12-25T15:51:32.196Z,7.63
2022-12-25T15:54:00.212Z,7.60
2022-12-25T15:56:28.350Z,7.61
2022-12-25T15:58:56.284Z,7.68
2022-12-25T16:01:25.756Z,7.61
2022-12-25T16:03:53.885Z,7.50
2022-12-25T16:06:21.935Z,7.83
2022-12-25T16:08:49.862Z,7.49
2022-12-25T16:11:17.762Z,7.82
2022-12-25T16:13:45.742Z,7.66
2022-12-25T16:16:13.735Z,7.59
2022-12-25T16:18:47.402Z,7.56
2022-12-25T16:21:18.078Z,7.80
2022-12-25T16:23:46.522Z,7.76
2022-12-25T16:26:14.491Z,7.71
2022-12-25T16:28:42.455Z,7.54
2022-12-25T16:31:11.459Z,7.54
2022-12-25T16:33:39.504Z,7.62
2022-12-25T16:36:10.109Z,7.73
2022-12-25T16:38:38.371Z,7.55
2022-12-25T16:41:06.630Z,7.54
2022-12-25T16:43:34.573Z,7.52
2022-12-25T16:46:02.624Z,7.51
2022-12-25T16:48:30.575Z,7.46
2022-12-25T16:50:58.482Z,7.43
2022-12-25T16:53:27.772Z,7.39
2022-12-25T16:56:06.369Z,7.37
2022-12-25T16:58:34.630Z,7.35
2022-12-25T17:01:10.284Z,7.35
2022-12-25T17:03:38.769Z,7.27
2022-12-25T17:09:57.131Z,7.34
2022-12-25T17:12:25.244Z,7.27
2022-12-25T17:14:53.471Z,7.26
2022-12-25T17:17:21.377Z,7.26
2022-12-25T17:19:49.327Z,7.25
2022-12-25T17:22:17.261Z,7.23
2022-12-25T17:24:45.883Z,7.21
2022-12-25T17:27:15.193Z,7.22
2022-12-25T17:29:44.064Z,7.24
2022-12-25T17:32:17.751Z,7.20
2022-12-25T17:34:45.707Z,7.18
2022-12-25T17:37:13.685Z,7.21
2022-12-25T17:39:41.825Z,7.21
2022-12-25T17:42:09.806Z,7.20
2022-12-25T17:44:39.248Z,7.19
2022-12-25T17:47:07.257Z,7.14
2022-12-25T17:49:35.962Z,7.16
2022-12-25T17:52:03.860Z,7.16
2022-12-25T17:54:31.771Z,7.15
2022-12-25T17:56:59.701Z,7.13
2022-12-25T17:59:29.666Z,7.13
2022-12-25T18:01:59.163Z,7.12
2022-12-25T18:04:27.251Z,7.11
2022-12-25T18:06:55.221Z,7.10
2022-12-25T18:09:23.154Z,7.09
2022-12-25T18:11:51.104Z,7.10
2022-12-25T18:14:19.099Z,7.08
2022-12-25T18:16:47.330Z,7.09
2022-12-25T18:19:18.391Z,7.07
2022-12-25T18:21:46.419Z,7.07
2022-12-25T18:24:14.377Z,7.06
2022-12-25T18:26:42.311Z,7.06
2022-12-25T18:29:10.243Z,7.05
2022-12-25T18:31:38.216Z,7.05
2022-12-25T18:34:06.420Z,7.04
2022-12-25T18:36:37.071Z,7.02
2022-12-25T18:39:05.259Z,7.00
2022-12-25T18:41:53.248Z,7.00
2022-12-25T18:44:23.087Z,6.98
2022-12-25T18:46:50.971Z,6.97
2022-12-25T18:49:18.888Z,6.97
2022-12-25T18:51:49.768Z,6.97
2022-12-25T18:54:17.689Z,6.96
2022-12-25T18:56:48.342Z,6.96
2022-12-25T18:59:18.675Z,6.95
2022-12-25T19:01:46.739Z,6.92
2022-12-25T19:04:16.231Z,6.92
2022-12-25T19:06:44.205Z,6.91
2022-12-25T19:09:13.659Z,6.91
2022-12-25T19:11:46.487Z,6.91
2022-12-25T19:14:15.557Z,6.91
2022-12-25T19:16:43.730Z,6.89
2022-12-25T19:19:11.731Z,6.90
2022-12-25T19:21:39.624Z,6.87
2022-12-25T19:24:07.980Z,6.87
2022-12-25T19:26:37.742Z,6.85
2022-12-25T19:29:05.874Z,6.87
2022-12-25T19:31:33.848Z,6.88
2022-12-25T19:34:01.808Z,6.85
2022-12-25T19:36:29.815Z,6.86
2022-12-25T19:38:57.927Z,6.85
2022-12-25T19:41:25.975Z,6.84
2022-12-25T19:43:55.437Z,6.81
2022-12-25T19:46:25.278Z,6.82
2022-12-25T19:48:53.402Z,6.80
2022-12-25T19:51:23.248Z,6.76
2022-12-25T19:53:51.413Z,6.77
2022-12-25T19:56:19.542Z,6.78
2022-12-25T19:58:47.451Z,6.77
2022-12-25T20:01:18.733Z,6.78
2022-12-25T20:03:46.882Z,6.76
2022-12-25T20:06:18.852Z,6.71
2022-12-25T20:08:47.265Z,6.71
2022-12-25T20:11:15.263Z,6.68
2022-12-25T20:13:43.219Z,6.67
2022-12-25T20:16:11.285Z,6.69
2022-12-25T20:18:41.291Z,6.71
2022-12-25T20:21:11.987Z,6.72
2022-12-25T20:23:39.874Z,6.73
2022-12-25T20:26:08.089Z,6.73
2022-12-25T20:28:37.322Z,6.69
2022-12-25T20:31:09.459Z,6.69
2022-12-25T20:33:37.707Z,6.69
2022-12-25T20:36:08.156Z,6.69
2022-12-25T20:38:37.012Z,6.70
2022-12-25T20:43:54.624Z,6.64
2022-12-25T20:46:23.563Z,6.64
2022-12-25T20:48:52.003Z,6.62
2022-12-25T20:51:23.317Z,6.61
2022-12-25T20:53:51.851Z,6.63
2022-12-25T20:56:21.597Z,6.63
2022-12-25T20:58:52.962Z,6.64
2022-12-25T21:01:21.177Z,6.62
2022-12-25T21:03:49.233Z,6.61
2022-12-25T21:06:17.319Z,6.60
2022-12-25T21:08:46.603Z,6.61
2022-12-25T21:11:15.612Z,6.61
2022-12-25T21:13:46.834Z,6.59
2022-12-25T21:16:17.018Z,6.59
2022-12-25T21:18:45.086Z,6.60
2022-12-25T21:21:13.245Z,6.59
2022-12-25T21:23:41.290Z,6.59
2022-12-25T21:26:16.798Z,6.57
2022-12-25T21:28:44.783Z,6.57
2022-12-25T21:31:13.060Z,6.55
2022-12-25T21:33:52.568Z,6.55
2022-12-25T21:36:23.704Z,6.56
2022-12-25T21:38:56.337Z,6.55
2022-12-25T21:41:26.480Z,6.57
2022-12-25T21:43:54.408Z,6.47
2022-12-25T21:46:22.766Z,6.49
2022-12-25T21:48:50.817Z,6.51
2022-12-25T21:51:38.020Z,6.44
2022-12-25T21:54:06.820Z,6.46
2022-12-25T21:56:43.605Z,6.47
2022-12-25T21:59:14.817Z,6.48
2022-12-25T22:01:42.944Z,6.51
2022-12-25T22:04:11.519Z,6.52
2022-12-25T22:06:57.011Z,6.53
2022-12-25T22:09:25.325Z,6.56
2022-12-25T22:12:12.283Z,6.55
2022-12-25T22:14:55.424Z,6.56
2022-12-25T22:17:42.945Z,6.56
2022-12-25T22:20:13.606Z,6.56
2022-12-25T22:22:41.533Z,6.54
2022-12-25T22:25:10.891Z,6.55
2022-12-25T22:27:41.149Z,6.54
2022-12-25T22:30:11.532Z,6.56
2022-12-25T22:32:39.748Z,6.52
2022-12-25T22:35:08.530Z,6.57
2022-12-25T22:37:37.033Z,6.61
2022-12-25T22:40:05.988Z,6.60
2022-12-25T22:42:34.065Z,6.58
2022-12-25T22:45:03.554Z,6.59
2022-12-25T22:47:31.546Z,6.59
2022-12-25T22:49:59.476Z,6.58
2022-12-25T22:52:27.440Z,6.59
2022-12-25T22:54:55.386Z,6.58
2022-12-25T22:57:23.454Z,6.59
2022-12-25T22:59:53.335Z,6.59
2022-12-25T23:02:22.911Z,6.55
2022-12-25T23:04:51.020Z,6.55
2022-12-25T23:07:19.190Z,6.53
2022-12-25T23:09:47.200Z,6.53
2022-12-25T23:12:29.009Z,6.50
2022-12-25T23:14:57.209Z,6.50
2022-12-25T23:17:43.948Z,6.53
2022-12-25T23:20:32.741Z,6.53
2022-12-25T23:23:18.011Z,6.54
2022-12-25T23:26:03.567Z,6.56
2022-12-25T23:28:49.343Z,6.56
2022-12-25T23:31:17.434Z,6.48
2022-12-25T23:33:46.784Z,6.53
2022-12-25T23:36:14.726Z,6.50
2022-12-25T23:38:42.756Z,6.51
2022-12-25T23:41:10.707Z,6.52
2022-12-25T23:43:39.094Z,6.53
2022-12-25T23:46:07.271Z,6.53
2022-12-25T23:48:35.215Z,6.56
2022-12-25T23:51:05.620Z,6.54
2022-12-25T23:53:34.207Z,6.52
2022-12-25T23:56:02.248Z,6.54
2022-12-25T23:58:30.344Z,6.55
